Terminal Aerodrome Forecast
Issued by NWS

Home | Current Version | Previous Version | Text Only | Print | Product List | Glossary On
Versions: 1 2 3 4 5 6 7 8 9 10 11 12 13 14 15 16 17
312
FTAK31 PAJN 161732
TAFAYA
TAF
PAYA 161732Z 1618/1718 11015G35KT 6SM -SHRA BR FEW013 OVC030
      WS020/13045KT
     FM170400 10010G20KT P6SM VCSH OVC035 WS020/13040KT
     FM170800 11012G22KT 6SM -RA SCT035 OVC050 WS020/14045KT
     FM171200 12010KT 4SM -RA BR BKN015 OVC025
      AMD NOT SKED=

USA.gov is the U.S. government's official web portal to all federal, state and local government web resources and services.